LMN weather

Limbang Airport
Limbang, Sarawak, Malaysia

Public forecast

Using degrees Celsius for public forecast. Weather courtesy of forecast.io.

METAR (pilot weather report)

Closest report is Brunei International Airport, 9.5 nm (17.6 km) NNW. Retrieved 2019/04/24 17:30 UTC (11 minutes ago):

WBSB 241730Z 21001KT 9999 FEW014 BKN140 28/27 Q1008 NOSIG

TAF (pilot weather forecast)

Closest forecast is Brunei International Airport, 9.5 nm (17.6 km) NNW. Retrieved 2019/04/24 12:15 UTC (5 hours ago):

TAF WBSB 241100Z 2412/2518 04005KT 9999 SCT015 FEW016CB TEMPO 2413/2416 6000 SHRA TSRA BECMG 2418/2420 16003KT SCT014 FEW015CB